sensor_id;sensor_type;location;lat;lon;timestamp;P1;durP1;ratioP1;P2;durP2;ratioP2
77542;SDS011;66669;52.100;5.104;2023-02-10T00:02:20;4.20;;;2.95;;
77542;SDS011;66669;52.100;5.104;2023-02-10T00:04:46;3.60;;;3.00;;
77542;SDS011;66669;52.100;5.104;2023-02-10T00:07:11;3.17;;;2.75;;
77542;SDS011;66669;52.100;5.104;2023-02-10T00:09:37;4.22;;;3.22;;
77542;SDS011;66669;52.100;5.104;2023-02-10T00:12:02;4.35;;;3.03;;
77542;SDS011;66669;52.100;5.104;2023-02-10T00:14:28;3.85;;;2.85;;
77542;SDS011;66669;52.100;5.104;2023-02-10T00:16:55;4.80;;;3.08;;
77542;SDS011;66669;52.100;5.104;2023-02-10T00:19:21;4.20;;;3.00;;
77542;SDS011;66669;52.100;5.104;2023-02-10T00:21:51;3.67;;;2.85;;
77542;SDS011;66669;52.100;5.104;2023-02-10T00:24:16;4.00;;;2.90;;
77542;SDS011;66669;52.100;5.104;2023-02-10T00:26:42;5.43;;;2.90;;
77542;SDS011;66669;52.100;5.104;2023-02-10T00:29:07;4.30;;;3.10;;
77542;SDS011;66669;52.100;5.104;2023-02-10T00:31:33;4.13;;;2.90;;
77542;SDS011;66669;52.100;5.104;2023-02-10T00:33:58;3.50;;;2.90;;
77542;SDS011;66669;52.100;5.104;2023-02-10T00:36:23;4.13;;;2.83;;
77542;SDS011;66669;52.100;5.104;2023-02-10T00:38:49;3.15;;;2.53;;
77542;SDS011;66669;52.100;5.104;2023-02-10T00:41:17;4.60;;;3.00;;
77542;SDS011;66669;52.100;5.104;2023-02-10T00:43:44;3.88;;;2.78;;
77542;SDS011;66669;52.100;5.104;2023-02-10T00:46:10;4.25;;;2.63;;
77542;SDS011;66669;52.100;5.104;2023-02-10T00:48:37;5.95;;;3.00;;
77542;SDS011;66669;52.100;5.104;2023-02-10T00:51:03;3.95;;;2.83;;
77542;SDS011;66669;52.100;5.104;2023-02-10T00:53:28;3.88;;;2.97;;
77542;SDS011;66669;52.100;5.104;2023-02-10T00:55:54;4.15;;;2.70;;
77542;SDS011;66669;52.100;5.104;2023-02-10T00:58:20;3.35;;;2.40;;
77542;SDS011;66669;52.100;5.104;2023-02-10T01:00:45;3.72;;;2.88;;
77542;SDS011;66669;52.100;5.104;2023-02-10T01:03:10;4.18;;;2.20;;
77542;SDS011;66669;52.100;5.104;2023-02-10T01:05:36;3.72;;;2.50;;
77542;SDS011;66669;52.100;5.104;2023-02-10T01:08:01;3.70;;;2.50;;
77542;SDS011;66669;52.100;5.104;2023-02-10T01:10:27;4.15;;;2.40;;
77542;SDS011;66669;52.100;5.104;2023-02-10T01:12:53;4.13;;;2.90;;
77542;SDS011;66669;52.100;5.104;2023-02-10T01:15:18;3.67;;;2.55;;
77542;SDS011;66669;52.100;5.104;2023-02-10T01:18:02;3.53;;;2.70;;
77542;SDS011;66669;52.100;5.104;2023-02-10T01:20:27;3.60;;;2.80;;
77542;SDS011;66669;52.100;5.104;2023-02-10T01:22:53;3.38;;;2.70;;
77542;SDS011;66669;52.100;5.104;2023-02-10T01:25:18;4.88;;;2.95;;
77542;SDS011;66669;52.100;5.104;2023-02-10T01:27:44;4.75;;;3.08;;
77542;SDS011;66669;52.100;5.104;2023-02-10T01:30:10;3.83;;;2.70;;
77542;SDS011;66669;52.100;5.104;2023-02-10T01:32:36;3.72;;;2.63;;
77542;SDS011;66669;52.100;5.104;2023-02-10T01:35:01;4.50;;;2.67;;
77542;SDS011;66669;52.100;5.104;2023-02-10T01:37:27;3.70;;;2.65;;
77542;SDS011;66669;52.100;5.104;2023-02-10T01:39:53;4.03;;;2.70;;
77542;SDS011;66669;52.100;5.104;2023-02-10T01:42:18;4.75;;;2.78;;
77542;SDS011;66669;52.100;5.104;2023-02-10T01:47:09;3.20;;;2.43;;
77542;SDS011;66669;52.100;5.104;2023-02-10T01:49:39;3.95;;;2.85;;
77542;SDS011;66669;52.100;5.104;2023-02-10T01:52:08;4.30;;;2.60;;
77542;SDS011;66669;52.100;5.104;2023-02-10T01:54:47;3.78;;;2.40;;
77542;SDS011;66669;52.100;5.104;2023-02-10T01:57:19;4.38;;;3.00;;
77542;SDS011;66669;52.100;5.104;2023-02-10T01:59:45;3.58;;;2.70;;
77542;SDS011;66669;52.100;5.104;2023-02-10T02:02:11;4.18;;;2.60;;
77542;SDS011;66669;52.100;5.104;2023-02-10T02:04:54;4.50;;;2.70;;
77542;SDS011;66669;52.100;5.104;2023-02-10T02:07:26;4.15;;;2.67;;
77542;SDS011;66669;52.100;5.104;2023-02-10T02:09:57;3.63;;;2.47;;
77542;SDS011;66669;52.100;5.104;2023-02-10T02:23:14;4.07;;;2.85;;
77542;SDS011;66669;52.100;5.104;2023-02-10T02:39:56;4.72;;;2.65;;
77542;SDS011;66669;52.100;5.104;2023-02-10T02:42:26;4.53;;;2.60;;
77542;SDS011;66669;52.100;5.104;2023-02-10T02:44:54;3.55;;;2.72;;
77542;SDS011;66669;52.100;5.104;2023-02-10T02:47:34;4.10;;;2.85;;
77542;SDS011;66669;52.100;5.104;2023-02-10T02:50:16;4.05;;;3.20;;
77542;SDS011;66669;52.100;5.104;2023-02-10T02:53:02;3.90;;;2.92;;
77542;SDS011;66669;52.100;5.104;2023-02-10T03:00:51;4.05;;;2.85;;
77542;SDS011;66669;52.100;5.104;2023-02-10T03:03:20;5.25;;;3.10;;
77542;SDS011;66669;52.100;5.104;2023-02-10T03:05:46;3.55;;;2.67;;
77542;SDS011;66669;52.100;5.104;2023-02-10T03:08:11;4.85;;;3.00;;
77542;SDS011;66669;52.100;5.104;2023-02-10T03:10:36;5.45;;;2.90;;
77542;SDS011;66669;52.100;5.104;2023-02-10T03:13:02;3.92;;;2.92;;
77542;SDS011;66669;52.100;5.104;2023-02-10T03:15:27;3.75;;;3.20;;
77542;SDS011;66669;52.100;5.104;2023-02-10T03:17:55;4.47;;;3.10;;
77542;SDS011;66669;52.100;5.104;2023-02-10T03:20:21;4.47;;;3.25;;
77542;SDS011;66669;52.100;5.104;2023-02-10T03:22:46;4.18;;;2.75;;
77542;SDS011;66669;52.100;5.104;2023-02-10T03:25:11;4.43;;;2.97;;
77542;SDS011;66669;52.100;5.104;2023-02-10T03:27:37;4.03;;;3.20;;
77542;SDS011;66669;52.100;5.104;2023-02-10T03:30:02;3.80;;;3.28;;
77542;SDS011;66669;52.100;5.104;2023-02-10T03:32:28;4.68;;;3.20;;
77542;SDS011;66669;52.100;5.104;2023-02-10T03:34:53;4.78;;;3.20;;
77542;SDS011;66669;52.100;5.104;2023-02-10T03:37:19;4.57;;;3.53;;
77542;SDS011;66669;52.100;5.104;2023-02-10T03:39:44;5.03;;;3.70;;
77542;SDS011;66669;52.100;5.104;2023-02-10T03:42:09;4.35;;;3.42;;
77542;SDS011;66669;52.100;5.104;2023-02-10T03:44:36;4.25;;;3.42;;
77542;SDS011;66669;52.100;5.104;2023-02-10T03:47:02;4.50;;;3.63;;
77542;SDS011;66669;52.100;5.104;2023-02-10T03:49:27;4.22;;;3.33;;
77542;SDS011;66669;52.100;5.104;2023-02-10T03:51:52;4.82;;;3.85;;
77542;SDS011;66669;52.100;5.104;2023-02-10T03:54:18;5.50;;;4.28;;
77542;SDS011;66669;52.100;5.104;2023-02-10T03:56:43;5.28;;;3.47;;
77542;SDS011;66669;52.100;5.104;2023-02-10T03:59:08;5.85;;;4.30;;
77542;SDS011;66669;52.100;5.104;2023-02-10T04:01:34;4.68;;;4.00;;
77542;SDS011;66669;52.100;5.104;2023-02-10T04:03:59;5.38;;;3.92;;
77542;SDS011;66669;52.100;5.104;2023-02-10T04:06:25;4.88;;;4.05;;
77542;SDS011;66669;52.100;5.104;2023-02-10T04:08:51;4.80;;;4.07;;
77542;SDS011;66669;52.100;5.104;2023-02-10T04:11:16;6.90;;;4.35;;
77542;SDS011;66669;52.100;5.104;2023-02-10T04:16:26;5.15;;;4.03;;
77542;SDS011;66669;52.100;5.104;2023-02-10T04:18:53;4.22;;;3.83;;
77542;SDS011;66669;52.100;5.104;2023-02-10T04:21:19;5.15;;;4.35;;
77542;SDS011;66669;52.100;5.104;2023-02-10T04:23:44;5.10;;;4.07;;
77542;SDS011;66669;52.100;5.104;2023-02-10T04:26:09;4.80;;;4.07;;
77542;SDS011;66669;52.100;5.104;2023-02-10T04:28:35;5.40;;;4.43;;
77542;SDS011;66669;52.100;5.104;2023-02-10T04:31:00;5.40;;;4.28;;
77542;SDS011;66669;52.100;5.104;2023-02-10T04:33:26;5.20;;;4.50;;
77542;SDS011;66669;52.100;5.104;2023-02-10T04:35:52;5.53;;;4.30;;
77542;SDS011;66669;52.100;5.104;2023-02-10T04:38:19;4.97;;;4.47;;
77542;SDS011;66669;52.100;5.104;2023-02-10T04:40:45;5.68;;;4.15;;
77542;SDS011;66669;52.100;5.104;2023-02-10T04:43:11;5.53;;;4.05;;
77542;SDS011;66669;52.100;5.104;2023-02-10T04:45:37;5.38;;;4.07;;
77542;SDS011;66669;52.100;5.104;2023-02-10T04:48:03;5.53;;;4.97;;
77542;SDS011;66669;52.100;5.104;2023-02-10T04:50:29;5.72;;;4.20;;
77542;SDS011;66669;52.100;5.104;2023-02-10T04:52:54;5.43;;;4.45;;
77542;SDS011;66669;52.100;5.104;2023-02-10T04:55:20;5.10;;;4.53;;
77542;SDS011;66669;52.100;5.104;2023-02-10T04:57:45;5.65;;;4.57;;
77542;SDS011;66669;52.100;5.104;2023-02-10T05:00:11;5.22;;;4.38;;
77542;SDS011;66669;52.100;5.104;2023-02-10T05:02:37;5.85;;;4.95;;
77542;SDS011;66669;52.100;5.104;2023-02-10T05:05:02;5.68;;;4.80;;
77542;SDS011;66669;52.100;5.104;2023-02-10T05:07:29;5.13;;;4.63;;
77542;SDS011;66669;52.100;5.104;2023-02-10T05:09:54;5.07;;;4.57;;
77542;SDS011;66669;52.100;5.104;2023-02-10T05:12:19;5.00;;;4.50;;
77542;SDS011;66669;52.100;5.104;2023-02-10T05:14:45;5.03;;;4.47;;
77542;SDS011;66669;52.100;5.104;2023-02-10T05:17:10;5.28;;;4.78;;
77542;SDS011;66669;52.100;5.104;2023-02-10T05:19:36;5.55;;;4.70;;
77542;SDS011;66669;52.100;5.104;2023-02-10T05:22:01;5.63;;;4.95;;
77542;SDS011;66669;52.100;5.104;2023-02-10T05:24:26;5.50;;;5.00;;
77542;SDS011;66669;52.100;5.104;2023-02-10T05:26:52;6.10;;;5.15;;
77542;SDS011;66669;52.100;5.104;2023-02-10T05:29:17;7.22;;;5.78;;
77542;SDS011;66669;52.100;5.104;2023-02-10T05:31:42;6.13;;;5.28;;
77542;SDS011;66669;52.100;5.104;2023-02-10T05:34:08;6.00;;;5.13;;
77542;SDS011;66669;52.100;5.104;2023-02-10T05:36:33;6.60;;;5.50;;
77542;SDS011;66669;52.100;5.104;2023-02-10T05:38:58;5.75;;;5.15;;
77542;SDS011;66669;52.100;5.104;2023-02-10T05:41:42;8.00;;;4.95;;
77542;SDS011;66669;52.100;5.104;2023-02-10T05:44:08;7.70;;;5.28;;
77542;SDS011;66669;52.100;5.104;2023-02-10T05:46:33;6.18;;;5.07;;
77542;SDS011;66669;52.100;5.104;2023-02-10T05:48:58;5.70;;;4.90;;
77542;SDS011;66669;52.100;5.104;2023-02-10T05:51:24;6.93;;;5.38;;
77542;SDS011;66669;52.100;5.104;2023-02-10T05:53:49;5.70;;;4.50;;
77542;SDS011;66669;52.100;5.104;2023-02-10T05:56:15;8.60;;;4.97;;
77542;SDS011;66669;52.100;5.104;2023-02-10T05:58:40;8.38;;;5.55;;
77542;SDS011;66669;52.100;5.104;2023-02-10T06:01:06;5.88;;;4.45;;
77542;SDS011;66669;52.100;5.104;2023-02-10T06:03:32;11.73;;;4.82;;
77542;SDS011;66669;52.100;5.104;2023-02-10T06:05:58;10.27;;;4.57;;
77542;SDS011;66669;52.100;5.104;2023-02-10T06:08:23;12.77;;;4.90;;
77542;SDS011;66669;52.100;5.104;2023-02-10T06:10:49;10.23;;;4.72;;
77542;SDS011;66669;52.100;5.104;2023-02-10T06:13:14;9.70;;;5.10;;
77542;SDS011;66669;52.100;5.104;2023-02-10T06:15:40;13.27;;;5.57;;
77542;SDS011;66669;52.100;5.104;2023-02-10T06:18:05;8.00;;;6.35;;
77542;SDS011;66669;52.100;5.104;2023-02-10T06:20:31;9.82;;;5.80;;
77542;SDS011;66669;52.100;5.104;2023-02-10T06:22:56;8.23;;;5.80;;
77542;SDS011;66669;52.100;5.104;2023-02-10T06:25:21;7.63;;;5.30;;
77542;SDS011;66669;52.100;5.104;2023-02-10T06:27:47;7.15;;;5.20;;
77542;SDS011;66669;52.100;5.104;2023-02-10T06:30:12;8.20;;;4.72;;
77542;SDS011;66669;52.100;5.104;2023-02-10T06:32:38;6.22;;;4.60;;
77542;SDS011;66669;52.100;5.104;2023-02-10T06:35:03;8.88;;;4.55;;
77542;SDS011;66669;52.100;5.104;2023-02-10T06:37:28;6.00;;;5.10;;
77542;SDS011;66669;52.100;5.104;2023-02-10T06:39:54;7.30;;;4.43;;
77542;SDS011;66669;52.100;5.104;2023-02-10T06:42:19;5.90;;;4.40;;
77542;SDS011;66669;52.100;5.104;2023-02-10T06:44:45;6.88;;;4.40;;
77542;SDS011;66669;52.100;5.104;2023-02-10T06:47:10;6.13;;;4.05;;
77542;SDS011;66669;52.100;5.104;2023-02-10T06:49:35;5.25;;;4.32;;
77542;SDS011;66669;52.100;5.104;2023-02-10T06:52:01;5.38;;;4.18;;
77542;SDS011;66669;52.100;5.104;2023-02-10T06:54:28;6.20;;;4.03;;
77542;SDS011;66669;52.100;5.104;2023-02-10T06:56:53;5.55;;;4.30;;
77542;SDS011;66669;52.100;5.104;2023-02-10T06:59:19;5.40;;;4.10;;
77542;SDS011;66669;52.100;5.104;2023-02-10T07:01:45;5.93;;;3.83;;
77542;SDS011;66669;52.100;5.104;2023-02-10T07:04:10;4.35;;;3.60;;
77542;SDS011;66669;52.100;5.104;2023-02-10T07:06:36;5.28;;;4.10;;
77542;SDS011;66669;52.100;5.104;2023-02-10T07:09:02;5.95;;;3.60;;
77542;SDS011;66669;52.100;5.104;2023-02-10T07:11:29;4.57;;;3.95;;
77542;SDS011;66669;52.100;5.104;2023-02-10T07:13:55;4.60;;;3.60;;
77542;SDS011;66669;52.100;5.104;2023-02-10T07:16:21;4.38;;;3.10;;
77542;SDS011;66669;52.100;5.104;2023-02-10T07:18:46;5.28;;;3.28;;
77542;SDS011;66669;52.100;5.104;2023-02-10T07:21:11;4.32;;;3.60;;
77542;SDS011;66669;52.100;5.104;2023-02-10T07:23:37;4.00;;;3.10;;
77542;SDS011;66669;52.100;5.104;2023-02-10T07:26:03;3.40;;;3.00;;
77542;SDS011;66669;52.100;5.104;2023-02-10T07:28:29;3.50;;;3.20;;
77542;SDS011;66669;52.100;5.104;2023-02-10T07:30:55;4.75;;;2.88;;
77542;SDS011;66669;52.100;5.104;2023-02-10T07:33:20;3.90;;;3.00;;
77542;SDS011;66669;52.100;5.104;2023-02-10T07:35:46;3.17;;;2.88;;
77542;SDS011;66669;52.100;5.104;2023-02-10T07:38:11;4.18;;;3.17;;
77542;SDS011;66669;52.100;5.104;2023-02-10T07:40:37;3.25;;;2.72;;
77542;SDS011;66669;52.100;5.104;2023-02-10T07:43:02;3.80;;;3.03;;
77542;SDS011;66669;52.100;5.104;2023-02-10T07:45:28;3.20;;;2.65;;
77542;SDS011;66669;52.100;5.104;2023-02-10T07:47:56;4.30;;;2.70;;
77542;SDS011;66669;52.100;5.104;2023-02-10T07:50:22;3.88;;;2.80;;
77542;SDS011;66669;52.100;5.104;2023-02-10T07:52:47;3.17;;;2.55;;
77542;SDS011;66669;52.100;5.104;2023-02-10T07:55:13;3.85;;;2.60;;
77542;SDS011;66669;52.100;5.104;2023-02-10T07:57:39;3.30;;;2.90;;
77542;SDS011;66669;52.100;5.104;2023-02-10T08:00:05;4.07;;;2.83;;
77542;SDS011;66669;52.100;5.104;2023-02-10T08:02:32;2.90;;;2.60;;
77542;SDS011;66669;52.100;5.104;2023-02-10T08:04:58;3.10;;;2.65;;
77542;SDS011;66669;52.100;5.104;2023-02-10T08:07:24;3.53;;;3.00;;
77542;SDS011;66669;52.100;5.104;2023-02-10T08:09:49;4.88;;;2.70;;
77542;SDS011;66669;52.100;5.104;2023-02-10T08:12:15;5.43;;;2.97;;
77542;SDS011;66669;52.100;5.104;2023-02-10T08:14:40;4.05;;;3.10;;
77542;SDS011;66669;52.100;5.104;2023-02-10T08:17:06;3.70;;;2.75;;
77542;SDS011;66669;52.100;5.104;2023-02-10T08:19:31;2.70;;;2.50;;
77542;SDS011;66669;52.100;5.104;2023-02-10T08:21:56;3.75;;;2.95;;
77542;SDS011;66669;52.100;5.104;2023-02-10T08:24:22;3.50;;;2.70;;
77542;SDS011;66669;52.100;5.104;2023-02-10T08:26:47;3.28;;;2.85;;
77542;SDS011;66669;52.100;5.104;2023-02-10T08:29:13;3.63;;;2.97;;
77542;SDS011;66669;52.100;5.104;2023-02-10T08:31:38;3.35;;;3.05;;
77542;SDS011;66669;52.100;5.104;2023-02-10T08:34:04;4.13;;;3.00;;
77542;SDS011;66669;52.100;5.104;2023-02-10T08:36:29;3.47;;;3.08;;
77542;SDS011;66669;52.100;5.104;2023-02-10T08:38:56;3.25;;;2.85;;
77542;SDS011;66669;52.100;5.104;2023-02-10T08:41:21;3.83;;;3.20;;
77542;SDS011;66669;52.100;5.104;2023-02-10T08:43:47;3.17;;;2.70;;
77542;SDS011;66669;52.100;5.104;2023-02-10T08:46:12;3.78;;;3.25;;
77542;SDS011;66669;52.100;5.104;2023-02-10T08:48:38;3.25;;;2.95;;
77542;SDS011;66669;52.100;5.104;2023-02-10T08:51:08;4.13;;;3.30;;
77542;SDS011;66669;52.100;5.104;2023-02-10T08:53:40;3.15;;;2.85;;
77542;SDS011;66669;52.100;5.104;2023-02-10T08:56:06;3.65;;;3.13;;
77542;SDS011;66669;52.100;5.104;2023-02-10T08:58:35;3.33;;;2.85;;
77542;SDS011;66669;52.100;5.104;2023-02-10T09:01:00;3.78;;;3.38;;
77542;SDS011;66669;52.100;5.104;2023-02-10T09:03:27;4.32;;;3.28;;
77542;SDS011;66669;52.100;5.104;2023-02-10T09:05:53;3.55;;;3.00;;
77542;SDS011;66669;52.100;5.104;2023-02-10T09:08:18;3.47;;;2.97;;
77542;SDS011;66669;52.100;5.104;2023-02-10T09:10:44;3.67;;;3.30;;
77542;SDS011;66669;52.100;5.104;2023-02-10T09:13:11;3.60;;;3.13;;
77542;SDS011;66669;52.100;5.104;2023-02-10T09:15:37;4.18;;;3.20;;
77542;SDS011;66669;52.100;5.104;2023-02-10T09:18:04;4.55;;;3.55;;
77542;SDS011;66669;52.100;5.104;2023-02-10T09:20:29;4.55;;;3.45;;
77542;SDS011;66669;52.100;5.104;2023-02-10T09:22:55;4.85;;;3.53;;
77542;SDS011;66669;52.100;5.104;2023-02-10T09:25:20;4.28;;;3.80;;
77542;SDS011;66669;52.100;5.104;2023-02-10T09:27:47;4.85;;;3.70;;
77542;SDS011;66669;52.100;5.104;2023-02-10T09:30:12;4.40;;;3.50;;
77542;SDS011;66669;52.100;5.104;2023-02-10T09:32:38;4.53;;;3.47;;
77542;SDS011;66669;52.100;5.104;2023-02-10T09:35:03;5.35;;;3.78;;
77542;SDS011;66669;52.100;5.104;2023-02-10T09:37:29;4.10;;;3.28;;
77542;SDS011;66669;52.100;5.104;2023-02-10T09:39:54;4.00;;;3.60;;
77542;SDS011;66669;52.100;5.104;2023-02-10T09:44:59;4.30;;;3.90;;
77542;SDS011;66669;52.100;5.104;2023-02-10T09:47:41;4.30;;;3.88;;
77542;SDS011;66669;52.100;5.104;2023-02-10T09:50:24;4.38;;;3.70;;
77542;SDS011;66669;52.100;5.104;2023-02-10T09:53:02;4.40;;;4.00;;
77542;SDS011;66669;52.100;5.104;2023-02-10T09:55:43;4.75;;;4.22;;
77542;SDS011;66669;52.100;5.104;2023-02-10T09:58:14;4.50;;;3.80;;
77542;SDS011;66669;52.100;5.104;2023-02-10T10:00:44;4.10;;;3.70;;
77542;SDS011;66669;52.100;5.104;2023-02-10T10:03:16;4.05;;;3.58;;
77542;SDS011;66669;52.100;5.104;2023-02-10T10:05:46;4.78;;;3.63;;
77542;SDS011;66669;52.100;5.104;2023-02-10T10:08:21;5.07;;;4.10;;
77542;SDS011;66669;52.100;5.104;2023-02-10T10:10:52;4.30;;;3.90;;
77542;SDS011;66669;52.100;5.104;2023-02-10T10:13:25;4.47;;;4.07;;
77542;SDS011;66669;52.100;5.104;2023-02-10T10:18:55;4.82;;;4.25;;
77542;SDS011;66669;52.100;5.104;2023-02-10T10:21:35;4.55;;;4.07;;
77542;SDS011;66669;52.100;5.104;2023-02-10T10:24:13;4.60;;;3.83;;
77542;SDS011;66669;52.100;5.104;2023-02-10T10:32:16;5.30;;;4.25;;
77542;SDS011;66669;52.100;5.104;2023-02-10T10:34:49;4.57;;;4.05;;
77542;SDS011;66669;52.100;5.104;2023-02-10T10:37:18;5.25;;;4.47;;
77542;SDS011;66669;52.100;5.104;2023-02-10T10:39:46;5.20;;;4.00;;
77542;SDS011;66669;52.100;5.104;2023-02-10T10:42:48;4.47;;;4.07;;
77542;SDS011;66669;52.100;5.104;2023-02-10T10:45:16;4.90;;;4.20;;
77542;SDS011;66669;52.100;5.104;2023-02-10T10:47:56;4.47;;;4.07;;
77542;SDS011;66669;52.100;5.104;2023-02-10T10:50:26;5.47;;;4.70;;
77542;SDS011;66669;52.100;5.104;2023-02-10T10:52:53;5.00;;;4.22;;
77542;SDS011;66669;52.100;5.104;2023-02-10T10:58:10;5.05;;;4.55;;
77542;SDS011;66669;52.100;5.104;2023-02-10T11:00:51;5.78;;;4.28;;
77542;SDS011;66669;52.100;5.104;2023-02-10T11:03:18;4.68;;;4.28;;
77542;SDS011;66669;52.100;5.104;2023-02-10T11:05:44;5.75;;;4.47;;
77542;SDS011;66669;52.100;5.104;2023-02-10T11:08:42;4.78;;;4.30;;
77542;SDS011;66669;52.100;5.104;2023-02-10T11:11:18;6.55;;;4.70;;
77542;SDS011;66669;52.100;5.104;2023-02-10T11:13:53;5.50;;;4.57;;
77542;SDS011;66669;52.100;5.104;2023-02-10T11:16:20;4.53;;;4.10;;
77542;SDS011;66669;52.100;5.104;2023-02-10T11:18:56;4.90;;;4.40;;
77542;SDS011;66669;52.100;5.104;2023-02-10T11:21:33;5.03;;;4.53;;
77542;SDS011;66669;52.100;5.104;2023-02-10T11:23:59;5.15;;;4.32;;
77542;SDS011;66669;52.100;5.104;2023-02-10T11:26:25;5.18;;;4.68;;
77542;SDS011;66669;52.100;5.104;2023-02-10T11:28:52;4.60;;;3.92;;
77542;SDS011;66669;52.100;5.104;2023-02-10T11:33:58;5.25;;;4.68;;
77542;SDS011;66669;52.100;5.104;2023-02-10T11:36:29;5.18;;;4.50;;
77542;SDS011;66669;52.100;5.104;2023-02-10T11:39:05;5.45;;;4.40;;
77542;SDS011;66669;52.100;5.104;2023-02-10T11:41:42;5.57;;;4.88;;
77542;SDS011;66669;52.100;5.104;2023-02-10T11:44:22;5.85;;;4.53;;
77542;SDS011;66669;52.100;5.104;2023-02-10T11:47:04;5.05;;;4.43;;
77542;SDS011;66669;52.100;5.104;2023-02-10T11:49:37;5.05;;;4.55;;
77542;SDS011;66669;52.100;5.104;2023-02-10T11:52:08;5.45;;;4.65;;
77542;SDS011;66669;52.100;5.104;2023-02-10T11:54:34;4.72;;;3.97;;
77542;SDS011;66669;52.100;5.104;2023-02-10T11:57:19;5.47;;;4.60;;
77542;SDS011;66669;52.100;5.104;2023-02-10T12:03:24;4.93;;;4.20;;
77542;SDS011;66669;52.100;5.104;2023-02-10T12:16:31;4.75;;;4.25;;
77542;SDS011;66669;52.100;5.104;2023-02-10T12:19:17;5.82;;;4.68;;
77542;SDS011;66669;52.100;5.104;2023-02-10T12:22:03;5.68;;;4.70;;
77542;SDS011;66669;52.100;5.104;2023-02-10T12:24:47;6.65;;;4.18;;
77542;SDS011;66669;52.100;5.104;2023-02-10T12:27:42;6.15;;;4.55;;
77542;SDS011;66669;52.100;5.104;2023-02-10T12:30:28;5.78;;;4.55;;
77542;SDS011;66669;52.100;5.104;2023-02-10T12:39:13;6.53;;;4.38;;
77542;SDS011;66669;52.100;5.104;2023-02-10T12:46:49;6.93;;;5.50;;
77542;SDS011;66669;52.100;5.104;2023-02-10T12:52:32;5.95;;;4.72;;
77542;SDS011;66669;52.100;5.104;2023-02-10T12:55:24;8.55;;;5.45;;
77542;SDS011;66669;52.100;5.104;2023-02-10T12:57:58;6.82;;;5.35;;
77542;SDS011;66669;52.100;5.104;2023-02-10T13:03:15;6.55;;;5.10;;
77542;SDS011;66669;52.100;5.104;2023-02-10T13:05:47;8.02;;;5.68;;
77542;SDS011;66669;52.100;5.104;2023-02-10T13:08:24;7.75;;;5.80;;
77542;SDS011;66669;52.100;5.104;2023-02-10T13:10:56;8.70;;;5.60;;
77542;SDS011;66669;52.100;5.104;2023-02-10T13:13:31;8.15;;;5.82;;
77542;SDS011;66669;52.100;5.104;2023-02-10T13:18:35;8.80;;;6.03;;
77542;SDS011;66669;52.100;5.104;2023-02-10T13:21:12;7.47;;;5.43;;
77542;SDS011;66669;52.100;5.104;2023-02-10T13:23:52;7.22;;;5.50;;
77542;SDS011;66669;52.100;5.104;2023-02-10T13:35:14;8.13;;;6.03;;
77542;SDS011;66669;52.100;5.104;2023-02-10T13:37:50;8.75;;;6.28;;
77542;SDS011;66669;52.100;5.104;2023-02-10T13:40:25;8.18;;;5.82;;
77542;SDS011;66669;52.100;5.104;2023-02-10T13:45:22;9.00;;;7.00;;
77542;SDS011;66669;52.100;5.104;2023-02-10T13:47:51;8.93;;;6.65;;
77542;SDS011;66669;52.100;5.104;2023-02-10T13:50:21;7.75;;;6.22;;
77542;SDS011;66669;52.100;5.104;2023-02-10T14:06:50;9.55;;;7.25;;
77542;SDS011;66669;52.100;5.104;2023-02-10T14:11:55;7.75;;;6.57;;
77542;SDS011;66669;52.100;5.104;2023-02-10T14:19:33;9.02;;;7.05;;
77542;SDS011;66669;52.100;5.104;2023-02-10T14:22:01;9.18;;;7.15;;
77542;SDS011;66669;52.100;5.104;2023-02-10T14:24:33;8.33;;;6.70;;
77542;SDS011;66669;52.100;5.104;2023-02-10T14:27:01;8.90;;;6.95;;
77542;SDS011;66669;52.100;5.104;2023-02-10T14:29:29;8.65;;;7.10;;
77542;SDS011;66669;52.100;5.104;2023-02-10T14:31:58;8.40;;;6.85;;
77542;SDS011;66669;52.100;5.104;2023-02-10T14:34:31;9.55;;;7.10;;
77542;SDS011;66669;52.100;5.104;2023-02-10T14:37:20;10.68;;;7.15;;
77542;SDS011;66669;52.100;5.104;2023-02-10T14:39:50;8.55;;;7.32;;
77542;SDS011;66669;52.100;5.104;2023-02-10T14:42:17;9.52;;;7.60;;
77542;SDS011;66669;52.100;5.104;2023-02-10T14:44:43;9.15;;;7.45;;
77542;SDS011;66669;52.100;5.104;2023-02-10T14:47:17;8.10;;;6.95;;
77542;SDS011;66669;52.100;5.104;2023-02-10T14:49:49;8.38;;;6.88;;
77542;SDS011;66669;52.100;5.104;2023-02-10T14:52:21;8.70;;;7.20;;
77542;SDS011;66669;52.100;5.104;2023-02-10T14:54:48;9.13;;;7.38;;
77542;SDS011;66669;52.100;5.104;2023-02-10T14:57:14;8.55;;;7.18;;
77542;SDS011;66669;52.100;5.104;2023-02-10T14:59:41;9.15;;;7.50;;
77542;SDS011;66669;52.100;5.104;2023-02-10T15:02:15;8.27;;;7.22;;
77542;SDS011;66669;52.100;5.104;2023-02-10T15:04:46;8.32;;;7.20;;
77542;SDS011;66669;52.100;5.104;2023-02-10T15:07:16;7.45;;;6.22;;
77542;SDS011;66669;52.100;5.104;2023-02-10T15:09:44;8.40;;;6.90;;
77542;SDS011;66669;52.100;5.104;2023-02-10T15:12:11;9.45;;;7.13;;
77542;SDS011;66669;52.100;5.104;2023-02-10T15:17:19;10.52;;;7.85;;
77542;SDS011;66669;52.100;5.104;2023-02-10T15:19:58;9.15;;;7.20;;
77542;SDS011;66669;52.100;5.104;2023-02-10T15:22:37;7.35;;;6.57;;
77542;SDS011;66669;52.100;5.104;2023-02-10T15:27:52;9.80;;;7.67;;
77542;SDS011;66669;52.100;5.104;2023-02-10T15:30:22;9.35;;;7.45;;
77542;SDS011;66669;52.100;5.104;2023-02-10T15:32:51;8.52;;;6.85;;
77542;SDS011;66669;52.100;5.104;2023-02-10T15:35:18;9.57;;;8.00;;
77542;SDS011;66669;52.100;5.104;2023-02-10T15:37:48;9.18;;;6.97;;
77542;SDS011;66669;52.100;5.104;2023-02-10T15:40:25;7.80;;;6.93;;
77542;SDS011;66669;52.100;5.104;2023-02-10T15:43:02;8.60;;;7.28;;
77542;SDS011;66669;52.100;5.104;2023-02-10T15:45:27;8.60;;;7.47;;
77542;SDS011;66669;52.100;5.104;2023-02-10T15:50:27;9.88;;;7.30;;
77542;SDS011;66669;52.100;5.104;2023-02-10T15:52:54;8.25;;;6.85;;
77542;SDS011;66669;52.100;5.104;2023-02-10T15:55:30;8.82;;;7.25;;
77542;SDS011;66669;52.100;5.104;2023-02-10T15:57:58;8.50;;;7.50;;
77542;SDS011;66669;52.100;5.104;2023-02-10T16:00:31;8.73;;;6.90;;
77542;SDS011;66669;52.100;5.104;2023-02-10T16:02:58;9.02;;;7.38;;
77542;SDS011;66669;52.100;5.104;2023-02-10T16:05:24;9.00;;;7.55;;
77542;SDS011;66669;52.100;5.104;2023-02-10T16:07:51;9.48;;;7.43;;
77542;SDS011;66669;52.100;5.104;2023-02-10T16:12:44;8.17;;;6.97;;
77542;SDS011;66669;52.100;5.104;2023-02-10T16:15:15;9.55;;;7.18;;
77542;SDS011;66669;52.100;5.104;2023-02-10T16:17:45;9.07;;;6.75;;
77542;SDS011;66669;52.100;5.104;2023-02-10T16:22:48;8.90;;;7.25;;
77542;SDS011;66669;52.100;5.104;2023-02-10T16:25:14;7.93;;;6.55;;
77542;SDS011;66669;52.100;5.104;2023-02-10T16:27:41;8.73;;;7.07;;
77542;SDS011;66669;52.100;5.104;2023-02-10T16:30:07;8.65;;;7.10;;
77542;SDS011;66669;52.100;5.104;2023-02-10T16:32:38;8.27;;;7.07;;
77542;SDS011;66669;52.100;5.104;2023-02-10T16:35:04;9.30;;;7.65;;
77542;SDS011;66669;52.100;5.104;2023-02-10T16:37:29;9.05;;;7.85;;
77542;SDS011;66669;52.100;5.104;2023-02-10T16:39:55;8.80;;;7.75;;
77542;SDS011;66669;52.100;5.104;2023-02-10T16:42:20;9.02;;;7.13;;
77542;SDS011;66669;52.100;5.104;2023-02-10T16:44:45;11.65;;;9.10;;
77542;SDS011;66669;52.100;5.104;2023-02-10T16:47:14;12.55;;;9.60;;
77542;SDS011;66669;52.100;5.104;2023-02-10T16:49:41;15.23;;;10.60;;
77542;SDS011;66669;52.100;5.104;2023-02-10T16:52:07;12.15;;;10.02;;
77542;SDS011;66669;52.100;5.104;2023-02-10T16:54:32;11.55;;;9.48;;
77542;SDS011;66669;52.100;5.104;2023-02-10T16:56:57;10.18;;;8.52;;
77542;SDS011;66669;52.100;5.104;2023-02-10T16:59:23;10.63;;;8.63;;
77542;SDS011;66669;52.100;5.104;2023-02-10T17:01:48;12.98;;;8.23;;
77542;SDS011;66669;52.100;5.104;2023-02-10T17:04:13;9.20;;;7.72;;
77542;SDS011;66669;52.100;5.104;2023-02-10T17:06:43;9.68;;;7.70;;
77542;SDS011;66669;52.100;5.104;2023-02-10T17:09:18;10.55;;;7.60;;